Time;durP1;ratioP1;P1;durP2;ratioP2;P2;SDS_P1;SDS_P2;PMS_P1;PMS_P2;Temp;Humidity;BMP_temperature;BMP_pressure;BME280_temperature;BME280_humidity;BME280_pressure;Samples;Min_cycle;Max_cycle;Signal;HPM_P1;HPM_P2
2023/10/11 00:01:12;;;;;;;10.00;9.10;;;;;;;;;;5096136;28;20545;-58
2023/10/11 00:03:52;;;;;;;9.93;8.40;;;;;;;;;;5095792;28;20537;-58
2023/10/11 00:06:18;;;;;;;11.03;10.03;;;;;;;;;;5095734;28;20438;-58
2023/10/11 00:08:45;;;;;;;9.40;8.60;;;;;;;;;;5095297;28;21056;-58
2023/10/11 00:11:18;;;;;;;10.03;9.13;;;;;;;;;;5095370;28;20991;-58
2023/10/11 00:13:46;;;;;;;9.73;8.70;;;;;;;;;;5095714;28;20465;-58
2023/10/11 00:16:16;;;;;;;11.60;8.60;;;;;;;;;;5095581;28;20447;-58
2023/10/11 00:18:45;;;;;;;9.03;8.20;;;;;;;;;;5095400;28;20452;-58
2023/10/11 00:21:15;;;;;;;11.40;8.63;;;;;;;;;;5095346;28;20442;-58
2023/10/11 00:23:43;;;;;;;10.37;9.30;;;;;;;;;;5095230;28;20454;-58
2023/10/11 00:26:10;;;;;;;10.03;9.10;;;;;;;;;;5095462;28;20452;-58
2023/10/11 00:28:38;;;;;;;11.33;9.97;;;;;;;;;;5095334;28;20562;-58
2023/10/11 00:31:11;;;;;;;12.07;9.50;;;;;;;;;;5095245;28;20450;-58
2023/10/11 00:33:38;;;;;;;10.57;9.57;;;;;;;;;;5095172;28;20478;-58
2023/10/11 00:36:07;;;;;;;10.13;9.13;;;;;;;;;;5095006;28;20474;-58
2023/10/11 00:38:43;;;;;;;9.60;8.80;;;;;;;;;;5094942;28;20529;-58
2023/10/11 00:41:15;;;;;;;9.30;8.60;;;;;;;;;;5095192;28;20521;-58
2023/10/11 00:43:46;;;;;;;11.47;8.90;;;;;;;;;;5094842;28;21008;-57
2023/10/11 00:46:14;;;;;;;9.63;8.80;;;;;;;;;;5094933;28;20493;-58
2023/10/11 00:48:51;;;;;;;12.80;9.37;;;;;;;;;;5094658;28;20834;-58
2023/10/11 00:51:20;;;;;;;10.93;9.83;;;;;;;;;;5094865;28;20541;-58
2023/10/11 00:53:47;;;;;;;11.07;9.93;;;;;;;;;;5094907;28;20538;-58
2023/10/11 00:56:14;;;;;;;10.70;9.60;;;;;;;;;;5094318;28;20451;-58
2023/10/11 00:58:43;;;;;;;10.30;8.97;;;;;;;;;;5094520;28;20956;-58
2023/10/11 01:01:10;;;;;;;10.10;9.10;;;;;;;;;;5094539;28;20447;-58
2023/10/11 01:03:40;;;;;;;10.50;9.47;;;;;;;;;;5094691;28;20450;-58
2023/10/11 01:06:10;;;;;;;9.93;9.03;;;;;;;;;;5094577;28;20439;-58
2023/10/11 01:08:41;;;;;;;12.13;8.37;;;;;;;;;;5094184;28;20492;-58
2023/10/11 01:11:10;;;;;;;10.17;9.17;;;;;;;;;;5094421;28;20443;-58
2023/10/11 01:13:40;;;;;;;9.17;8.37;;;;;;;;;;5094224;28;20473;-58
2023/10/11 01:16:07;;;;;;;10.73;8.83;;;;;;;;;;5094536;28;20474;-58
2023/10/11 01:18:34;;;;;;;15.07;9.47;;;;;;;;;;5094186;28;20992;-58
2023/10/11 01:21:03;;;;;;;10.33;9.33;;;;;;;;;;5094283;28;20442;-58
2023/10/11 01:23:30;;;;;;;12.10;9.47;;;;;;;;;;5094220;28;20453;-58
2023/10/11 01:26:06;;;;;;;9.13;8.30;;;;;;;;;;5094123;28;20514;-58
2023/10/11 01:28:33;;;;;;;11.37;9.60;;;;;;;;;;5094188;28;20483;-58
2023/10/11 01:31:01;;;;;;;17.70;9.07;;;;;;;;;;5094155;28;20443;-58
2023/10/11 01:33:28;;;;;;;9.03;7.00;;;;;;;;;;5094019;28;20449;-58
2023/10/11 01:35:55;;;;;;;9.43;8.57;;;;;;;;;;5094006;28;20645;-58
2023/10/11 01:38:24;;;;;;;8.40;7.60;;;;;;;;;;5093835;28;20533;-58
2023/10/11 01:40:54;;;;;;;9.97;8.93;;;;;;;;;;5093725;28;20534;-58
2023/10/11 01:43:21;;;;;;;9.20;8.33;;;;;;;;;;5093954;28;20466;-58
2023/10/11 01:45:48;;;;;;;10.93;8.70;;;;;;;;;;5093881;28;20438;-58
2023/10/11 01:48:15;;;;;;;9.07;8.03;;;;;;;;;;5093663;28;20904;-58
2023/10/11 01:50:42;;;;;;;8.10;7.30;;;;;;;;;;5093506;28;20454;-58
2023/10/11 01:53:09;;;;;;;8.53;7.73;;;;;;;;;;5093644;28;20858;-58
2023/10/11 01:55:39;;;;;;;8.57;7.73;;;;;;;;;;5093770;28;20442;-58
2023/10/11 01:58:12;;;;;;;8.53;7.63;;;;;;;;;;5093926;28;20504;-58
2023/10/11 02:00:39;;;;;;;8.33;7.63;;;;;;;;;;5093578;28;20548;-58
2023/10/11 02:03:12;;;;;;;8.03;7.03;;;;;;;;;;5093459;28;20478;-58
2023/10/11 02:05:40;;;;;;;8.70;7.90;;;;;;;;;;5093377;28;20896;-58
2023/10/11 02:08:11;;;;;;;10.40;7.80;;;;;;;;;;5092405;28;20486;-58
2023/10/11 02:10:40;;;;;;;8.10;7.37;;;;;;;;;;5093512;28;20442;-58
2023/10/11 02:13:09;;;;;;;8.10;7.30;;;;;;;;;;5093399;28;20443;-58
2023/10/11 02:15:37;;;;;;;8.10;7.30;;;;;;;;;;5093272;28;20496;-58
2023/10/11 02:18:08;;;;;;;8.83;7.93;;;;;;;;;;5093210;28;20450;-58
2023/10/11 02:20:35;;;;;;;9.20;8.30;;;;;;;;;;5093163;28;20446;-58
2023/10/11 02:23:02;;;;;;;7.43;6.73;;;;;;;;;;5093296;28;20482;-58
2023/10/11 02:25:29;;;;;;;7.90;7.17;;;;;;;;;;5093294;28;20470;-58
2023/10/11 02:27:58;;;;;;;8.37;7.57;;;;;;;;;;5093118;28;20521;-58
2023/10/11 02:30:25;;;;;;;10.63;6.83;;;;;;;;;;5093056;28;20446;-58
2023/10/11 02:32:53;;;;;;;7.50;6.30;;;;;;;;;;5092943;28;20442;-58
2023/10/11 02:35:20;;;;;;;9.00;7.27;;;;;;;;;;5093226;28;20533;-58
2023/10/11 02:37:47;;;;;;;10.70;7.90;;;;;;;;;;5093102;28;20452;-58
2023/10/11 02:40:22;;;;;;;8.00;7.00;;;;;;;;;;5093043;28;20442;-58
2023/10/11 02:42:50;;;;;;;7.60;6.60;;;;;;;;;;5093032;28;20442;-58
2023/10/11 02:45:21;;;;;;;9.23;6.13;;;;;;;;;;5092862;28;20450;-59
2023/10/11 02:47:48;;;;;;;10.20;6.90;;;;;;;;;;5092775;28;21040;-58
2023/10/11 02:50:15;;;;;;;8.20;7.40;;;;;;;;;;5092887;28;20663;-58
2023/10/11 02:52:43;;;;;;;7.33;6.50;;;;;;;;;;5092805;28;20946;-58
2023/10/11 02:55:20;;;;;;;11.70;7.83;;;;;;;;;;5092833;28;20447;-58
2023/10/11 02:57:47;;;;;;;8.70;6.73;;;;;;;;;;5092794;28;20442;-59
2023/10/11 03:00:21;;;;;;;8.70;6.40;;;;;;;;;;5092947;28;20537;-58
2023/10/11 03:02:54;;;;;;;8.00;6.27;;;;;;;;;;5092769;28;21000;-58
2023/10/11 03:05:26;;;;;;;7.83;6.07;;;;;;;;;;5092816;28;20807;-58
2023/10/11 03:07:53;;;;;;;8.87;6.40;;;;;;;;;;5092466;28;20517;-58
2023/10/11 03:10:20;;;;;;;9.23;6.77;;;;;;;;;;5092582;28;20529;-58
2023/10/11 03:12:50;;;;;;;9.23;6.30;;;;;;;;;;5092820;28;20483;-58
2023/10/11 03:15:19;;;;;;;10.40;6.43;;;;;;;;;;5092540;28;20944;-58
2023/10/11 03:17:52;;;;;;;6.60;5.57;;;;;;;;;;5092694;28;20807;-58
2023/10/11 03:20:26;;;;;;;8.80;6.30;;;;;;;;;;5095984;28;20482;-58
2023/10/11 03:22:53;;;;;;;6.97;6.13;;;;;;;;;;5096386;28;20953;-58
2023/10/11 03:25:21;;;;;;;7.70;5.93;;;;;;;;;;5096675;28;20805;-58
2023/10/11 03:27:49;;;;;;;7.63;6.43;;;;;;;;;;5096441;28;20550;-59
2023/10/11 03:30:16;;;;;;;6.00;5.30;;;;;;;;;;5096384;28;20443;-58
2023/10/11 03:32:44;;;;;;;7.33;5.57;;;;;;;;;;5096351;28;20442;-58
2023/10/11 03:35:16;;;;;;;12.10;8.67;;;;;;;;;;5096206;28;20442;-58
2023/10/11 03:37:57;;;;;;;7.93;6.13;;;;;;;;;;5096183;28;20537;-58
2023/10/11 03:40:34;;;;;;;8.13;5.50;;;;;;;;;;5096040;28;20945;-58
2023/10/11 03:43:01;;;;;;;9.20;6.37;;;;;;;;;;5096134;28;20442;-58
2023/10/11 03:45:28;;;;;;;6.77;6.07;;;;;;;;;;5095991;28;20529;-58
2023/10/11 03:47:57;;;;;;;7.90;6.27;;;;;;;;;;5095827;28;20438;-58
2023/10/11 03:50:33;;;;;;;10.20;6.00;;;;;;;;;;5096141;28;20450;-58
2023/10/11 03:53:10;;;;;;;7.20;5.70;;;;;;;;;;5096113;28;20783;-58
2023/10/11 03:55:45;;;;;;;11.03;6.50;;;;;;;;;;5095801;28;20948;-58
2023/10/11 03:58:15;;;;;;;11.17;7.37;;;;;;;;;;5095788;28;20485;-58
2023/10/11 04:00:47;;;;;;;8.37;6.20;;;;;;;;;;5095986;28;20457;-58
2023/10/11 04:03:17;;;;;;;7.80;5.90;;;;;;;;;;5095744;28;20439;-58
2023/10/11 04:05:47;;;;;;;8.50;5.97;;;;;;;;;;5095790;28;20439;-58
2023/10/11 04:08:24;;;;;;;7.70;6.43;;;;;;;;;;5095481;28;20474;-58
2023/10/11 04:10:53;;;;;;;10.27;6.37;;;;;;;;;;5095595;28;20446;-58
2023/10/11 04:13:25;;;;;;;11.97;6.40;;;;;;;;;;5095660;28;20442;-59
2023/10/11 04:15:53;;;;;;;8.60;5.80;;;;;;;;;;5095625;28;20474;-58
2023/10/11 04:18:33;;;;;;;8.33;5.50;;;;;;;;;;5095650;28;20474;-58
2023/10/11 04:21:15;;;;;;;14.30;6.23;;;;;;;;;;5095480;28;20445;-57
2023/10/11 04:23:45;;;;;;;6.43;5.57;;;;;;;;;;5095561;28;20446;-57
2023/10/11 04:26:26;;;;;;;10.47;5.67;;;;;;;;;;5095267;28;20529;-58
2023/10/11 04:28:52;;;;;;;8.80;5.60;;;;;;;;;;5095187;28;20501;-58
2023/10/11 04:31:30;;;;;;;8.87;6.43;;;;;;;;;;5094402;28;20512;-58
2023/10/11 04:33:59;;;;;;;6.10;5.10;;;;;;;;;;5095318;28;20442;-57
2023/10/11 04:36:26;;;;;;;14.10;5.30;;;;;;;;;;5095114;28;20478;-57
2023/10/11 04:39:02;;;;;;;6.23;5.63;;;;;;;;;;5095140;28;20456;-60
2023/10/11 04:41:37;;;;;;;12.90;6.20;;;;;;;;;;5095044;28;20439;-57
2023/10/11 04:44:13;;;;;;;11.53;6.07;;;;;;;;;;5094911;28;20496;-58
2023/10/11 04:46:42;;;;;;;9.30;5.47;;;;;;;;;;5094839;28;20438;-58
2023/10/11 04:49:18;;;;;;;5.57;5.07;;;;;;;;;;5094911;28;20483;-59
2023/10/11 04:51:46;;;;;;;8.63;5.10;;;;;;;;;;5094804;28;20451;-57
2023/10/11 04:54:17;;;;;;;9.17;5.67;;;;;;;;;;5094597;28;20439;-58
2023/10/11 04:56:53;;;;;;;7.60;5.50;;;;;;;;;;5094905;28;20854;-59
2023/10/11 04:59:27;;;;;;;9.70;5.63;;;;;;;;;;5094782;28;20477;-60
2023/10/11 05:02:04;;;;;;;9.10;5.63;;;;;;;;;;5094564;28;20840;-59
2023/10/11 05:04:32;;;;;;;9.63;6.33;;;;;;;;;;5094471;28;20465;-60
2023/10/11 05:07:03;;;;;;;11.33;5.60;;;;;;;;;;5094165;28;20569;-58
2023/10/11 05:09:37;;;;;;;8.97;4.93;;;;;;;;;;5094404;28;20489;-57
2023/10/11 05:12:08;;;;;;;7.93;5.80;;;;;;;;;;5094415;28;20454;-58
2023/10/11 05:14:39;;;;;;;10.40;5.10;;;;;;;;;;5094153;28;20496;-58
2023/10/11 05:17:31;;;;;;;13.20;8.80;;;;;;;;;;5094142;28;20461;-57
2023/10/11 05:20:20;;;;;;;5.97;5.37;;;;;;;;;;5094277;28;20504;-57
2023/10/11 05:22:52;;;;;;;7.50;5.57;;;;;;;;;;5094147;28;21022;-58
2023/10/11 05:25:40;;;;;;;7.13;5.73;;;;;;;;;;5094061;28;20579;-60
2023/10/11 05:31:06;;;;;;;9.07;5.97;;;;;;;;;;5093822;28;20872;-59
2023/10/11 05:33:41;;;;;;;6.60;5.60;;;;;;;;;;5093988;28;20835;-57
2023/10/11 05:36:16;;;;;;;7.07;5.57;;;;;;;;;;5093645;28;20443;-58
2023/10/11 05:52:29;;;;;;;9.60;5.23;;;;;;;;;;5093675;28;20525;-58
2023/10/11 05:54:56;;;;;;;9.23;5.47;;;;;;;;;;5093404;28;20439;-58
2023/10/11 05:57:27;;;;;;;6.83;4.83;;;;;;;;;;5093610;28;20533;-58
2023/10/11 05:59:54;;;;;;;8.63;5.40;;;;;;;;;;5093617;28;20961;-58
2023/10/11 06:02:22;;;;;;;7.90;5.00;;;;;;;;;;5093463;28;20481;-58
2023/10/11 06:04:49;;;;;;;10.00;5.27;;;;;;;;;;5093232;28;20438;-58
2023/10/11 06:07:19;;;;;;;7.53;5.10;;;;;;;;;;5093108;28;20830;-58
2023/10/11 06:09:46;;;;;;;9.93;4.40;;;;;;;;;;5093081;28;20536;-58
2023/10/11 06:12:23;;;;;;;11.20;5.50;;;;;;;;;;5093291;28;20434;-58
2023/10/11 06:14:52;;;;;;;6.50;5.03;;;;;;;;;;5093093;28;20924;-58
2023/10/11 06:17:21;;;;;;;8.90;6.03;;;;;;;;;;5093149;28;20529;-57
2023/10/11 06:19:53;;;;;;;7.97;5.60;;;;;;;;;;5092996;28;20439;-58
2023/10/11 06:22:21;;;;;;;10.57;4.40;;;;;;;;;;5093220;28;20435;-58
2023/10/11 06:24:48;;;;;;;7.90;5.10;;;;;;;;;;5093074;28;20446;-59
2023/10/11 06:29:58;;;;;;;9.73;5.37;;;;;;;;;;5092625;28;20868;-59
2023/10/11 06:32:29;;;;;;;14.10;4.97;;;;;;;;;;5092877;28;20449;-58
2023/10/11 06:34:56;;;;;;;9.57;5.60;;;;;;;;;;5093025;28;20442;-59
2023/10/11 06:37:24;;;;;;;6.90;4.50;;;;;;;;;;5092873;28;21029;-58
2023/10/11 06:42:32;;;;;;;8.50;4.90;;;;;;;;;;5092703;28;20438;-58
2023/10/11 06:45:01;;;;;;;7.37;4.87;;;;;;;;;;5092633;28;20438;-58
2023/10/11 06:47:33;;;;;;;5.60;4.47;;;;;;;;;;5092822;28;20447;-58
2023/10/11 06:50:10;;;;;;;6.37;4.97;;;;;;;;;;5092791;28;20838;-58
2023/10/11 06:52:42;;;;;;;10.87;6.30;;;;;;;;;;5092696;28;20450;-59
2023/10/11 06:55:16;;;;;;;6.20;5.07;;;;;;;;;;5095840;28;20446;-58
2023/10/11 06:57:50;;;;;;;7.87;4.67;;;;;;;;;;5097079;28;20779;-59
2023/10/11 07:00:22;;;;;;;7.40;5.10;;;;;;;;;;5096885;28;20867;-59
2023/10/11 07:02:49;;;;;;;4.63;4.13;;;;;;;;;;5096709;28;20952;-59
2023/10/11 07:05:19;;;;;;;6.70;5.00;;;;;;;;;;5096548;28;20537;-58
2023/10/11 07:07:47;;;;;;;5.37;4.87;;;;;;;;;;5096399;28;20470;-59
2023/10/11 07:10:28;;;;;;;6.80;5.30;;;;;;;;;;5096361;28;20917;-58
2023/10/11 07:13:03;;;;;;;9.67;4.70;;;;;;;;;;5096408;28;20972;-58
2023/10/11 07:15:37;;;;;;;5.53;4.40;;;;;;;;;;5096507;28;20758;-58
2023/10/11 07:18:08;;;;;;;6.60;4.30;;;;;;;;;;5096346;28;20496;-58
2023/10/11 07:20:47;;;;;;;5.80;4.30;;;;;;;;;;5095988;28;20926;-59
2023/10/11 07:23:19;;;;;;;6.53;5.33;;;;;;;;;;5096386;28;20964;-58
2023/10/11 07:25:48;;;;;;;10.73;5.00;;;;;;;;;;5096315;28;20446;-59
2023/10/11 07:28:35;;;;;;;5.30;4.73;;;;;;;;;;5096471;28;20446;-58
2023/10/11 07:31:03;;;;;;;5.50;4.90;;;;;;;;;;5095911;28;20485;-59
2023/10/11 07:33:30;;;;;;;8.40;4.47;;;;;;;;;;5095990;28;20938;-59
2023/10/11 07:35:59;;;;;;;15.03;4.97;;;;;;;;;;5095835;28;20961;-58
2023/10/11 07:38:32;;;;;;;11.77;5.83;;;;;;;;;;5096032;28;20817;-58
2023/10/11 07:41:04;;;;;;;6.67;5.10;;;;;;;;;;5095734;28;20447;-59
2023/10/11 07:43:32;;;;;;;5.47;4.63;;;;;;;;;;5096161;28;20454;-58
2023/10/11 07:45:59;;;;;;;11.40;5.03;;;;;;;;;;5095987;28;20481;-59
2023/10/11 07:48:31;;;;;;;7.40;4.90;;;;;;;;;;5095720;28;20439;-58
2023/10/11 07:51:03;;;;;;;5.80;4.90;;;;;;;;;;5095654;28;20486;-58
2023/10/11 07:53:32;;;;;;;5.40;4.33;;;;;;;;;;5095808;28;20446;-59
2023/10/11 07:55:59;;;;;;;7.73;4.63;;;;;;;;;;5095875;28;20851;-58
2023/10/11 07:58:32;;;;;;;7.03;5.23;;;;;;;;;;5095780;28;20443;-58
2023/10/11 08:01:02;;;;;;;5.47;4.90;;;;;;;;;;5095678;28;20461;-58
2023/10/11 08:03:34;;;;;;;7.40;4.87;;;;;;;;;;5095813;28;20435;-58
2023/10/11 08:06:05;;;;;;;11.93;5.40;;;;;;;;;;5094255;28;20442;-60
2023/10/11 08:08:32;;;;;;;7.47;4.50;;;;;;;;;;5095390;28;20466;-58
2023/10/11 08:11:06;;;;;;;10.43;4.77;;;;;;;;;;5095358;28;20478;-59
2023/10/11 08:13:32;;;;;;;6.73;4.57;;;;;;;;;;5095471;28;20435;-58
2023/10/11 08:16:05;;;;;;;7.20;4.10;;;;;;;;;;5095234;28;21120;-58
2023/10/11 08:18:33;;;;;;;7.33;4.60;;;;;;;;;;5095236;28;20465;-59
2023/10/11 08:21:01;;;;;;;6.17;4.37;;;;;;;;;;5095084;28;20447;-58
2023/10/11 08:23:29;;;;;;;8.83;4.43;;;;;;;;;;5095143;28;20451;-59
2023/10/11 08:25:56;;;;;;;7.90;4.80;;;;;;;;;;5095120;28;20450;-59
2023/10/11 08:28:28;;;;;;;6.53;3.93;;;;;;;;;;5095073;28;20450;-58
2023/10/11 08:30:57;;;;;;;6.43;4.07;;;;;;;;;;5094982;28;20577;-59
2023/10/11 08:33:25;;;;;;;5.53;4.00;;;;;;;;;;5094664;28;20497;-59
2023/10/11 08:35:54;;;;;;;6.87;5.67;;;;;;;;;;5095020;28;20426;-59
2023/10/11 08:38:24;;;;;;;5.57;4.20;;;;;;;;;;5094941;28;20849;-59
2023/10/11 08:40:51;;;;;;;5.13;4.13;;;;;;;;;;5094790;28;20480;-59
2023/10/11 08:43:18;;;;;;;6.37;4.30;;;;;;;;;;5088603;28;20448;-58
2023/10/11 08:45:49;;;;;;;13.40;5.10;;;;;;;;;;5082896;28;20446;-59
2023/10/11 08:48:16;;;;;;;11.30;5.00;;;;;;;;;;5083744;28;20446;-58
2023/10/11 08:50:51;;;;;;;6.50;4.43;;;;;;;;;;5084920;28;20826;-59
2023/10/11 08:53:21;;;;;;;7.60;4.40;;;;;;;;;;5084818;28;20478;-59
2023/10/11 08:55:51;;;;;;;4.10;3.67;;;;;;;;;;5083290;28;20440;-58
2023/10/11 08:58:27;;;;;;;5.10;4.40;;;;;;;;;;5083139;28;20862;-59
2023/10/11 09:00:55;;;;;;;5.80;4.27;;;;;;;;;;5079458;28;20434;-59
2023/10/11 09:03:23;;;;;;;7.33;4.60;;;;;;;;;;5084910;28;20442;-59
2023/10/11 09:05:58;;;;;;;5.13;3.97;;;;;;;;;;5092125;28;20438;-59
2023/10/11 09:08:32;;;;;;;5.50;4.37;;;;;;;;;;5094175;28;20466;-59
2023/10/11 09:11:11;;;;;;;7.90;4.87;;;;;;;;;;5094060;28;20973;-58
2023/10/11 09:13:38;;;;;;;7.27;4.80;;;;;;;;;;5094298;28;20438;-58
2023/10/11 09:16:12;;;;;;;12.67;4.97;;;;;;;;;;5094137;28;20443;-59
2023/10/11 09:18:39;;;;;;;8.97;3.90;;;;;;;;;;5093986;28;20453;-59
2023/10/11 09:21:15;;;;;;;5.33;4.10;;;;;;;;;;5094097;28;20797;-59
2023/10/11 09:23:47;;;;;;;7.33;4.50;;;;;;;;;;5094203;28;20439;-59
2023/10/11 09:26:20;;;;;;;6.83;3.97;;;;;;;;;;5094057;28;20447;-58
2023/10/11 09:28:49;;;;;;;10.13;4.87;;;;;;;;;;5094022;28;20435;-59
2023/10/11 09:31:21;;;;;;;7.10;3.70;;;;;;;;;;5093699;28;21005;-59
2023/10/11 09:33:50;;;;;;;3.90;3.53;;;;;;;;;;5093686;28;21001;-59
2023/10/11 09:36:19;;;;;;;6.43;3.97;;;;;;;;;;5094030;28;20450;-58
2023/10/11 09:38:54;;;;;;;7.00;4.47;;;;;;;;;;5093868;28;20911;-58
2023/10/11 09:41:23;;;;;;;6.80;4.73;;;;;;;;;;5093851;28;20507;-58
2023/10/11 09:43:50;;;;;;;7.23;4.53;;;;;;;;;;5093642;28;20442;-58
2023/10/11 09:46:18;;;;;;;6.13;3.90;;;;;;;;;;5093585;28;20443;-58
2023/10/11 09:48:48;;;;;;;5.10;4.40;;;;;;;;;;5093610;28;20447;-59
2023/10/11 09:51:15;;;;;;;4.60;3.97;;;;;;;;;;5093494;28;20482;-58
2023/10/11 09:53:49;;;;;;;9.03;4.23;;;;;;;;;;5093404;28;20965;-58
2023/10/11 09:56:29;;;;;;;8.83;4.17;;;;;;;;;;5093430;28;20443;-58
2023/10/11 09:59:00;;;;;;;6.37;4.10;;;;;;;;;;5093265;28;20504;-58
2023/10/11 10:01:32;;;;;;;5.80;3.97;;;;;;;;;;5093356;28;20957;-58
2023/10/11 10:04:05;;;;;;;7.07;3.97;;;;;;;;;;5093340;28;20449;-58
2023/10/11 10:06:32;;;;;;;6.43;4.60;;;;;;;;;;5093192;28;20442;-58
2023/10/11 10:09:23;;;;;;;9.13;3.60;;;;;;;;;;5093136;28;20442;-58
2023/10/11 10:12:09;;;;;;;9.20;4.50;;;;;;;;;;5093177;28;20533;-58
2023/10/11 10:14:37;;;;;;;5.60;4.10;;;;;;;;;;5093249;28;20446;-58
2023/10/11 10:17:10;;;;;;;4.83;4.13;;;;;;;;;;5093058;28;20446;-59
2023/10/11 10:19:39;;;;;;;6.47;4.53;;;;;;;;;;5093020;28;20810;-58
2023/10/11 10:22:11;;;;;;;4.30;3.90;;;;;;;;;;5093114;28;20533;-59
2023/10/11 10:24:41;;;;;;;5.97;3.83;;;;;;;;;;5079509;28;20439;-59
2023/10/11 10:27:23;;;;;;;5.03;3.80;;;;;;;;;;5072838;28;20443;-59
2023/10/11 10:29:59;;;;;;;3.73;3.43;;;;;;;;;;5071841;28;20451;-59
2023/10/11 10:32:27;;;;;;;3.90;3.60;;;;;;;;;;5072966;28;20991;-59
2023/10/11 10:35:18;;;;;;;6.40;4.07;;;;;;;;;;5072987;28;20443;-59
2023/10/11 10:37:55;;;;;;;7.90;3.50;;;;;;;;;;5072507;28;20443;-59
2023/10/11 10:40:24;;;;;;;4.67;3.40;;;;;;;;;;5072575;28;20447;-59
2023/10/11 10:43:19;;;;;;;8.97;4.47;;;;;;;;;;5072715;28;20448;-59
2023/10/11 10:45:48;;;;;;;5.13;3.83;;;;;;;;;;5070563;28;20443;-59
2023/10/11 10:48:15;;;;;;;4.33;3.53;;;;;;;;;;5072496;28;20811;-59
2023/10/11 10:50:50;;;;;;;5.30;3.63;;;;;;;;;;5072308;28;20570;-59
2023/10/11 10:53:16;;;;;;;4.28;3.88;;;;;;;;;;5072600;28;20758;-59
2023/10/11 10:55:43;;;;;;;6.23;4.43;;;;;;;;;;5072231;28;20232;-59
2023/10/11 10:58:15;;;;;;;12.10;4.67;;;;;;;;;;5072358;28;20885;-59
2023/10/11 11:00:43;;;;;;;8.13;4.60;;;;;;;;;;5071408;28;20466;-59
2023/10/11 11:03:20;;;;;;;10.00;4.60;;;;;;;;;;5072326;28;20232;-59
2023/10/11 11:05:57;;;;;;;5.07;4.20;;;;;;;;;;5072637;28;20451;-59
2023/10/11 11:08:27;;;;;;;4.93;3.70;;;;;;;;;;5080200;28;20552;-58
2023/10/11 11:10:55;;;;;;;5.70;4.07;;;;;;;;;;5091048;28;20466;-58
2023/10/11 11:13:22;;;;;;;4.80;3.17;;;;;;;;;;5092487;28;20492;-59
2023/10/11 11:15:55;;;;;;;8.83;3.90;;;;;;;;;;5092324;28;20878;-59
2023/10/11 11:18:31;;;;;;;5.63;4.10;;;;;;;;;;5092517;28;20435;-59
2023/10/11 11:21:02;;;;;;;6.40;3.70;;;;;;;;;;5092617;28;20446;-58
2023/10/11 11:23:33;;;;;;;7.97;4.53;;;;;;;;;;5092547;28;20451;-59
2023/10/11 11:26:04;;;;;;;5.13;4.33;;;;;;;;;;5089227;28;20453;-59
2023/10/11 11:28:39;;;;;;;4.23;3.83;;;;;;;;;;5075224;28;20442;-59
2023/10/11 11:31:10;;;;;;;5.40;3.93;;;;;;;;;;5072258;28;20510;-59
2023/10/11 11:33:47;;;;;;;6.13;3.90;;;;;;;;;;5072351;28;20447;-59
2023/10/11 11:36:22;;;;;;;6.20;4.40;;;;;;;;;;5072293;28;20443;-59
2023/10/11 11:38:49;;;;;;;5.57;4.30;;;;;;;;;;5071912;28;20455;-59
2023/10/11 11:41:16;;;;;;;5.47;3.70;;;;;;;;;;5075224;28;20439;-59
2023/10/11 11:43:44;;;;;;;5.90;3.90;;;;;;;;;;5075972;28;20871;-59
2023/10/11 11:46:10;;;;;;;4.40;4.00;;;;;;;;;;5075702;28;20534;-58
2023/10/11 11:48:41;;;;;;;6.97;4.10;;;;;;;;;;5075592;28;20451;-59
2023/10/11 11:51:13;;;;;;;5.33;3.80;;;;;;;;;;5075347;28;21061;-59
2023/10/11 11:53:43;;;;;;;5.37;3.43;;;;;;;;;;5075445;28;20462;-59
2023/10/11 11:56:10;;;;;;;3.40;3.10;;;;;;;;;;5075655;28;20448;-59
2023/10/11 11:58:38;;;;;;;7.70;3.87;;;;;;;;;;5075534;28;20455;-59
2023/10/11 12:01:15;;;;;;;6.30;3.83;;;;;;;;;;5075445;28;20454;-58
2023/10/11 12:03:52;;;;;;;3.90;3.50;;;;;;;;;;5075305;28;20962;-59
2023/10/11 12:06:24;;;;;;;9.60;4.27;;;;;;;;;;5075403;28;20532;-59
2023/10/11 12:08:58;;;;;;;5.90;4.63;;;;;;;;;;5075280;28;20526;-59
2023/10/11 12:11:28;;;;;;;4.60;4.03;;;;;;;;;;5075347;28;20834;-59
2023/10/11 12:13:56;;;;;;;5.43;3.30;;;;;;;;;;5075102;28;20542;-58
2023/10/11 12:16:23;;;;;;;7.13;3.93;;;;;;;;;;5075107;28;20480;-59
2023/10/11 12:18:57;;;;;;;6.17;4.03;;;;;;;;;;5075204;28;20443;-59
2023/10/11 12:21:24;;;;;;;5.23;3.70;;;;;;;;;;5075105;28;20480;-59
2023/10/11 12:23:51;;;;;;;6.53;4.13;;;;;;;;;;5075078;28;20443;-59
2023/10/11 12:26:18;;;;;;;5.87;4.20;;;;;;;;;;5074910;28;20450;-59
2023/10/11 12:28:45;;;;;;;4.47;3.90;;;;;;;;;;5074697;28;20443;-59
2023/10/11 12:31:12;;;;;;;6.40;3.83;;;;;;;;;;5074835;28;20479;-59
2023/10/11 12:33:39;;;;;;;5.10;3.50;;;;;;;;;;5082987;28;20474;-59
2023/10/11 12:36:08;;;;;;;11.37;4.50;;;;;;;;;;5084629;28;20475;-59
2023/10/11 12:38:36;;;;;;;6.63;3.80;;;;;;;;;;5083358;28;20510;-59
2023/10/11 12:41:03;;;;;;;4.77;4.30;;;;;;;;;;5085267;28;20512;-59
2023/10/11 12:43:30;;;;;;;6.60;3.93;;;;;;;;;;5084749;28;20474;-59
2023/10/11 12:45:57;;;;;;;8.67;4.00;;;;;;;;;;5083279;28;20847;-59
2023/10/11 12:48:24;;;;;;;8.37;3.50;;;;;;;;;;5084355;28;20946;-60
2023/10/11 12:50:51;;;;;;;5.53;4.47;;;;;;;;;;5084649;28;20471;-59
2023/10/11 12:53:20;;;;;;;9.37;4.50;;;;;;;;;;5085312;28;20435;-59
2023/10/11 12:55:49;;;;;;;10.97;4.47;;;;;;;;;;5085449;28;20916;-59
2023/10/11 12:58:16;;;;;;;5.93;3.90;;;;;;;;;;5093566;28;20513;-59
2023/10/11 13:00:49;;;;;;;5.60;3.93;;;;;;;;;;5094451;28;20189;-59
2023/10/11 13:03:18;;;;;;;4.87;4.03;;;;;;;;;;5094608;28;20529;-59
2023/10/11 13:05:46;;;;;;;6.17;4.20;;;;;;;;;;5094450;28;20454;-59
2023/10/11 13:08:14;;;;;;;7.50;4.00;;;;;;;;;;5093887;28;20481;-59
2023/10/11 13:10:45;;;;;;;5.13;3.67;;;;;;;;;;5094428;28;20807;-59
2023/10/11 13:13:13;;;;;;;5.53;3.50;;;;;;;;;;5094458;28;20470;-59
2023/10/11 13:15:41;;;;;;;6.43;4.63;;;;;;;;;;5094195;28;20447;-59
2023/10/11 13:18:10;;;;;;;4.53;3.60;;;;;;;;;;5094300;28;20490;-59
2023/10/11 13:20:38;;;;;;;7.00;4.20;;;;;;;;;;5094171;28;20442;-59
2023/10/11 13:23:06;;;;;;;7.53;3.53;;;;;;;;;;5094077;28;20431;-59
2023/10/11 13:25:34;;;;;;;6.50;3.43;;;;;;;;;;5093632;28;20450;-59
2023/10/11 13:28:03;;;;;;;7.63;3.90;;;;;;;;;;5094055;28;20474;-59
2023/10/11 13:30:36;;;;;;;6.97;4.20;;;;;;;;;;5093987;28;20443;-59
2023/10/11 13:33:05;;;;;;;5.30;4.33;;;;;;;;;;5093774;28;20451;-59
2023/10/11 13:35:35;;;;;;;8.63;5.30;;;;;;;;;;5093704;28;20509;-59
2023/10/11 13:38:04;;;;;;;5.83;4.00;;;;;;;;;;5093878;28;20447;-59
2023/10/11 13:40:32;;;;;;;6.03;3.87;;;;;;;;;;5093656;28;20929;-59
2023/10/11 13:42:59;;;;;;;11.17;4.17;;;;;;;;;;5093750;28;20549;-59
2023/10/11 13:45:27;;;;;;;5.10;3.23;;;;;;;;;;5093732;28;20438;-59
2023/10/11 13:47:54;;;;;;;5.33;3.73;;;;;;;;;;5093591;28;20534;-59
2023/10/11 13:50:21;;;;;;;4.23;3.80;;;;;;;;;;5093662;28;20446;-59
2023/10/11 13:52:51;;;;;;;7.23;3.80;;;;;;;;;;5093676;28;20573;-59
2023/10/11 13:55:18;;;;;;;4.00;3.60;;;;;;;;;;5093610;28;20451;-59
2023/10/11 13:57:52;;;;;;;7.37;4.43;;;;;;;;;;5093581;28;20439;-59
2023/10/11 14:03:32;;;;;;;6.97;3.80;;;;;;;;;;5092655;28;20435;-59
2023/10/11 14:06:20;;;;;;;3.17;2.90;;;;;;;;;;5093212;28;20446;-59
2023/10/11 14:08:47;;;;;;;4.50;3.50;;;;;;;;;;5092910;28;21007;-59
2023/10/11 14:11:17;;;;;;;5.20;3.77;;;;;;;;;;5092882;28;20981;-59
2023/10/11 14:13:49;;;;;;;5.27;3.70;;;;;;;;;;5093235;28;20446;-59
2023/10/11 14:16:18;;;;;;;8.00;3.60;;;;;;;;;;5093244;28;20453;-59
2023/10/11 14:18:49;;;;;;;5.37;4.40;;;;;;;;;;5092990;28;20937;-59
2023/10/11 14:21:19;;;;;;;3.93;3.60;;;;;;;;;;5092952;28;20446;-59
2023/10/11 14:23:48;;;;;;;5.80;4.00;;;;;;;;;;5093001;28;20954;-59
2023/10/11 14:26:15;;;;;;;6.83;4.60;;;;;;;;;;5092934;28;20435;-58
2023/10/11 14:28:43;;;;;;;5.50;3.50;;;;;;;;;;5093108;28;20443;-59
2023/10/11 14:31:14;;;;;;;6.27;4.03;;;;;;;;;;5092649;28;20976;-58
2023/10/11 14:33:40;;;;;;;5.17;4.63;;;;;;;;;;5092823;28;20453;-59
2023/10/11 14:36:10;;;;;;;5.53;3.87;;;;;;;;;;5093034;28;20871;-59
2023/10/11 14:38:38;;;;;;;6.20;3.73;;;;;;;;;;5093041;28;20989;-58
2023/10/11 14:41:14;;;;;;;3.87;3.50;;;;;;;;;;5092938;28;20458;-58
2023/10/11 14:43:41;;;;;;;3.53;3.23;;;;;;;;;;5092933;28;20442;-59
2023/10/11 14:46:08;;;;;;;6.00;3.53;;;;;;;;;;5092709;28;20449;-59
2023/10/11 14:48:35;;;;;;;7.93;3.70;;;;;;;;;;5092984;28;20864;-59
2023/10/11 14:51:06;;;;;;;4.80;3.10;;;;;;;;;;5092819;28;20449;-58
2023/10/11 14:53:34;;;;;;;4.33;3.57;;;;;;;;;;5092860;28;20443;-58
2023/10/11 14:56:06;;;;;;;4.83;3.80;;;;;;;;;;5092770;28;20481;-59
2023/10/11 14:58:34;;;;;;;3.97;3.13;;;;;;;;;;5092678;28;20518;-59
2023/10/11 15:01:07;;;;;;;5.80;3.67;;;;;;;;;;5092902;28;20450;-59
2023/10/11 15:03:35;;;;;;;4.10;3.70;;;;;;;;;;5092801;28;20464;-58
2023/10/11 15:06:08;;;;;;;4.87;4.40;;;;;;;;;;5092680;28;20841;-59
2023/10/11 15:08:37;;;;;;;5.63;3.93;;;;;;;;;;5092362;28;20470;-59
2023/10/11 15:11:05;;;;;;;3.77;3.37;;;;;;;;;;5092571;28;20794;-59
2023/10/11 15:13:33;;;;;;;6.47;3.40;;;;;;;;;;5092820;28;20447;-59
2023/10/11 15:16:01;;;;;;;7.70;4.20;;;;;;;;;;5095623;28;21098;-59
2023/10/11 15:18:28;;;;;;;4.17;2.90;;;;;;;;;;5096731;28;20503;-60
2023/10/11 15:20:55;;;;;;;4.83;3.27;;;;;;;;;;5096652;28;20446;-60
2023/10/11 15:23:23;;;;;;;9.63;3.43;;;;;;;;;;5096524;28;20452;-59
2023/10/11 15:25:53;;;;;;;8.70;3.67;;;;;;;;;;5096512;28;20442;-59